Time;durP1;ratioP1;P1;durP2;ratioP2;P2;SDS_P1;SDS_P2;PMS_P1;PMS_P2;Temp;Humidity;BMP_temperature;BMP_pressure;BME280_temperature;BME280_humidity;BME280_pressure;Samples;Min_cycle;Max_cycle;Signal;HPM_P1;HPM_P2
2022/02/18 00:02:21;;;;;;;13.07;2.43;;;6.20;99.90;;;;;;5052258;28;20226;-41
2022/02/18 00:04:48;;;;;;;11.27;2.20;;;6.20;99.90;;;;;;5062978;28;20202;-42
2022/02/18 00:07:15;;;;;;;11.67;2.53;;;6.20;99.90;;;;;;5064174;28;20209;-41
2022/02/18 00:09:43;;;;;;;14.17;2.57;;;6.20;99.90;;;;;;5060634;28;20997;-44
2022/02/18 00:12:12;;;;;;;12.70;2.33;;;6.20;99.90;;;;;;5063555;28;20195;-42
2022/02/18 00:14:39;;;;;;;16.53;2.67;;;6.20;99.90;;;;;;5047785;28;20203;-42
2022/02/18 00:17:08;;;;;;;15.07;2.87;;;6.10;99.90;;;;;;5062930;28;20651;-41
2022/02/18 00:19:36;;;;;;;14.30;2.80;;;6.00;99.90;;;;;;5061010;28;20230;-43
2022/02/18 00:22:03;;;;;;;13.90;2.80;;;6.00;99.90;;;;;;5078612;28;20218;-43
2022/02/18 00:24:30;;;;;;;21.77;3.17;;;6.00;99.90;;;;;;5080271;28;20194;-43
2022/02/18 00:26:57;;;;;;;14.53;3.00;;;6.00;99.90;;;;;;5083618;28;20198;-41
2022/02/18 00:29:25;;;;;;;16.43;3.17;;;6.10;99.90;;;;;;5080014;28;20316;-43
2022/02/18 00:31:52;;;;;;;13.97;3.00;;;6.10;99.90;;;;;;5054465;28;20195;-40
2022/02/18 00:34:25;;;;;;;12.87;3.50;;;6.10;99.90;;;;;;5059602;28;20197;-43
2022/02/18 00:36:52;;;;;;;11.47;2.27;;;6.10;99.90;;;;;;5064181;28;20230;-41
2022/02/18 00:39:19;;;;;;;12.07;3.47;;;6.10;99.90;;;;;;5061129;28;20218;-43
2022/02/18 00:41:50;;;;;;;12.27;2.40;;;6.10;99.90;;;;;;5064142;28;20260;-40
2022/02/18 00:44:18;;;;;;;16.00;2.83;;;6.10;99.90;;;;;;5061212;28;20655;-40
2022/02/18 00:46:48;;;;;;;18.43;3.03;;;6.10;99.90;;;;;;5048339;28;20238;-41
2022/02/18 00:49:15;;;;;;;17.97;2.67;;;6.10;99.90;;;;;;5063170;28;20279;-41
2022/02/18 00:51:42;;;;;;;16.80;2.63;;;6.10;99.90;;;;;;5061032;28;20205;-40
2022/02/18 00:54:11;;;;;;;16.83;3.63;;;6.10;99.90;;;;;;5061394;28;20202;-41
2022/02/18 00:56:40;;;;;;;14.40;2.70;;;6.10;99.90;;;;;;5061703;28;20900;-41
2022/02/18 00:59:07;;;;;;;10.13;2.47;;;6.10;99.90;;;;;;5063600;28;20713;-41
2022/02/18 01:01:34;;;;;;;16.73;3.53;;;6.10;99.90;;;;;;5044655;28;20226;-44
2022/02/18 01:04:03;;;;;;;15.97;3.03;;;6.10;99.90;;;;;;5063834;28;20191;-45
2022/02/18 01:06:31;;;;;;;11.20;2.83;;;6.20;99.90;;;;;;5059185;28;20194;-40
2022/02/18 01:08:58;;;;;;;13.07;2.60;;;6.20;99.90;;;;;;5063159;28;20223;-41
2022/02/18 01:11:25;;;;;;;19.10;2.57;;;6.20;99.90;;;;;;5059777;28;20244;-41
2022/02/18 01:13:52;;;;;;;13.90;3.20;;;6.20;99.90;;;;;;5063529;28;20209;-42
2022/02/18 01:16:22;;;;;;;23.03;3.40;;;6.10;99.90;;;;;;5046184;28;20245;-40
2022/02/18 01:18:53;;;;;;;15.60;3.00;;;6.10;99.90;;;;;;5058767;28;20211;-44
2022/02/18 01:21:22;;;;;;;16.77;2.30;;;6.00;99.90;;;;;;5057293;28;20666;-45
2022/02/18 01:23:49;;;;;;;20.30;2.93;;;6.00;99.90;;;;;;5062465;28;20203;-41
2022/02/18 01:26:16;;;;;;;16.67;3.13;;;6.00;99.90;;;;;;5061013;28;20586;-42
2022/02/18 01:28:43;;;;;;;13.83;2.90;;;6.00;99.90;;;;;;5062281;28;20236;-41
2022/02/18 01:31:11;;;;;;;13.10;2.50;;;6.00;99.90;;;;;;5056190;28;20264;-44
2022/02/18 01:33:40;;;;;;;13.63;2.87;;;5.90;99.90;;;;;;5055712;28;20352;-40
2022/02/18 01:36:07;;;;;;;13.87;2.70;;;5.90;99.90;;;;;;5060811;28;20855;-41
2022/02/18 01:38:35;;;;;;;15.10;2.80;;;5.80;99.90;;;;;;5060206;28;20209;-43
2022/02/18 01:41:04;;;;;;;20.30;3.00;;;5.80;99.90;;;;;;5062036;28;20210;-40
2022/02/18 01:43:30;;;;;;;11.67;2.57;;;5.80;99.90;;;;;;5058011;28;20961;-43
2022/02/18 01:45:57;;;;;;;11.93;2.27;;;5.70;99.90;;;;;;5061639;28;20202;-42
2022/02/18 01:48:24;;;;;;;17.13;3.03;;;5.70;99.90;;;;;;5044013;28;20203;-41
2022/02/18 01:50:52;;;;;;;7.73;2.57;;;5.60;99.90;;;;;;5062657;28;20667;-40
2022/02/18 01:53:19;;;;;;;10.43;2.40;;;5.60;99.90;;;;;;5058810;28;20756;-42
2022/02/18 01:55:47;;;;;;;17.17;2.67;;;5.60;99.90;;;;;;5062358;28;20217;-40
2022/02/18 01:58:14;;;;;;;11.97;2.47;;;5.60;99.90;;;;;;5059850;28;20202;-40
2022/02/18 02:00:41;;;;;;;12.50;2.40;;;5.50;99.90;;;;;;5061548;28;20273;-40
2022/02/18 02:03:08;;;;;;;8.17;2.63;;;5.40;99.90;;;;;;5047070;28;20282;-41
2022/02/18 02:05:35;;;;;;;11.33;1.73;;;5.40;99.90;;;;;;5059661;28;20518;-41
2022/02/18 02:08:03;;;;;;;15.00;1.87;;;5.40;99.90;;;;;;5061600;28;20679;-40
2022/02/18 02:10:31;;;;;;;18.40;2.37;;;5.40;99.90;;;;;;5057903;28;20290;-43
2022/02/18 02:13:28;;;;;;;15.77;3.30;;;5.30;99.90;;;;;;5049954;28;20197;-41
2022/02/18 02:15:55;;;;;;;8.47;2.40;;;5.30;99.90;;;;;;5070206;28;20285;-40
2022/02/18 02:18:23;;;;;;;13.13;2.93;;;5.20;99.90;;;;;;5043073;28;20280;-41
2022/02/18 02:20:50;;;;;;;11.87;2.77;;;5.20;99.90;;;;;;5061596;28;20207;-41
2022/02/18 02:23:19;;;;;;;19.17;3.07;;;5.20;99.90;;;;;;5061321;28;20218;-40
2022/02/18 02:25:47;;;;;;;12.43;1.97;;;5.20;99.90;;;;;;5065621;28;20230;-40
2022/02/18 02:28:18;;;;;;;8.80;1.87;;;5.10;99.90;;;;;;5061391;28;20259;-41
2022/02/18 02:30:47;;;;;;;11.80;2.10;;;5.10;99.90;;;;;;5065462;28;20260;-42
2022/02/18 02:33:15;;;;;;;17.93;2.63;;;5.00;99.90;;;;;;5061288;28;20209;-41
2022/02/18 02:35:44;;;;;;;12.00;2.13;;;5.00;99.90;;;;;;5049857;28;20206;-40
2022/02/18 02:38:12;;;;;;;16.73;2.53;;;5.00;99.90;;;;;;5061247;28;20202;-41
2022/02/18 02:40:40;;;;;;;16.67;2.00;;;5.10;99.90;;;;;;5065238;28;20222;-41
2022/02/18 02:43:09;;;;;;;9.97;2.30;;;5.00;99.90;;;;;;5061790;28;20230;-41
2022/02/18 02:45:36;;;;;;;13.33;2.27;;;4.90;99.90;;;;;;5064514;28;20198;-40
2022/02/18 02:48:04;;;;;;;12.47;2.90;;;4.90;99.90;;;;;;5062748;28;20229;-39
2022/02/18 02:50:50;;;;;;;12.40;2.27;;;4.80;99.90;;;;;;5051027;28;20221;-40
2022/02/18 02:53:18;;;;;;;19.53;2.10;;;4.70;99.90;;;;;;5060808;28;20902;-41
2022/02/18 02:55:46;;;;;;;11.27;2.20;;;4.80;99.90;;;;;;5064896;28;20209;-42
2022/02/18 02:58:14;;;;;;;10.27;2.10;;;4.70;99.90;;;;;;5067805;28;20202;-40
2022/02/18 03:00:42;;;;;;;9.57;2.17;;;4.60;99.90;;;;;;5064859;28;20199;-40
2022/02/18 03:03:17;;;;;;;6.03;1.87;;;4.60;99.90;;;;;;5060867;28;20216;-40
2022/02/18 03:05:55;;;;;;;9.00;2.03;;;4.80;99.90;;;;;;5060894;28;20617;-41
2022/02/18 03:08:23;;;;;;;9.93;1.77;;;4.70;99.90;;;;;;5051484;28;20206;-41
2022/02/18 03:13:33;;;;;;;10.00;2.07;;;4.70;99.90;;;;;;5062733;28;20299;-41
2022/02/18 03:16:00;;;;;;;11.70;2.17;;;4.70;99.90;;;;;;5062577;28;20198;-40
2022/02/18 03:18:27;;;;;;;14.10;2.50;;;4.70;99.90;;;;;;5062357;28;21086;-41
2022/02/18 03:20:57;;;;;;;8.37;2.60;;;4.60;99.90;;;;;;5064400;28;20598;-41
2022/02/18 03:23:24;;;;;;;14.63;2.17;;;4.60;99.90;;;;;;5046765;28;20845;-40
2022/02/18 03:25:52;;;;;;;12.63;2.07;;;4.60;99.90;;;;;;5064102;28;20190;-40
2022/02/18 03:28:20;;;;;;;13.30;2.50;;;4.60;99.90;;;;;;5060514;28;20248;-42
2022/02/18 03:30:47;;;;;;;11.37;2.00;;;4.50;99.90;;;;;;5063821;28;20218;-42
2022/02/18 03:33:14;;;;;;;7.40;2.60;;;4.50;99.90;;;;;;5061467;28;20194;-41
2022/02/18 03:35:42;;;;;;;12.93;2.23;;;4.50;99.90;;;;;;5063763;28;20209;-40
2022/02/18 03:38:09;;;;;;;19.37;2.73;;;4.60;99.90;;;;;;5047537;28;20210;-41
2022/02/18 03:40:41;;;;;;;8.33;2.37;;;4.50;99.90;;;;;;5063633;28;20190;-41
2022/02/18 03:43:15;;;;;;;15.27;2.67;;;4.50;99.90;;;;;;5059693;28;20322;-41
2022/02/18 03:46:01;;;;;;;10.70;2.37;;;4.50;99.90;;;;;;5059012;28;20268;-43
2022/02/18 03:48:32;;;;;;;13.50;2.57;;;4.50;99.90;;;;;;5062407;28;20195;-45
2022/02/18 03:51:01;;;;;;;11.03;2.07;;;4.50;99.90;;;;;;5061588;28;20268;-40
2022/02/18 03:53:28;;;;;;;23.17;2.80;;;4.50;99.90;;;;;;5046871;28;20327;-40
2022/02/18 03:56:06;;;;;;;7.93;2.23;;;4.50;99.90;;;;;;5060555;28;20248;-41
2022/02/18 03:58:38;;;;;;;7.63;2.03;;;4.40;99.90;;;;;;5063641;28;20229;-44
2022/02/18 04:01:05;;;;;;;12.50;2.37;;;4.40;99.90;;;;;;5061021;28;20560;-44
2022/02/18 04:03:32;;;;;;;16.13;2.40;;;4.40;99.90;;;;;;5062736;28;20317;-45
2022/02/18 04:06:18;;;;;;;11.87;2.30;;;4.40;99.90;;;;;;5060774;28;20925;-41
2022/02/18 04:08:51;;;;;;;10.63;3.10;;;4.40;99.90;;;;;;5048374;28;20309;-43
2022/02/18 04:11:40;;;;;;;9.63;2.00;;;4.40;99.90;;;;;;5063250;28;20249;-44
2022/02/18 04:14:11;;;;;;;10.50;2.03;;;4.40;99.90;;;;;;5059938;28;20206;-44
2022/02/18 04:16:39;;;;;;;17.33;2.73;;;4.40;99.90;;;;;;5061926;28;20203;-41
2022/02/18 04:19:10;;;;;;;13.53;2.77;;;4.40;99.90;;;;;;5064075;28;20219;-41
2022/02/18 04:21:44;;;;;;;11.80;2.20;;;4.40;99.90;;;;;;5062302;28;20251;-41
2022/02/18 04:24:36;;;;;;;38.33;3.23;;;4.40;99.90;;;;;;5044863;28;20214;-44
2022/02/18 04:27:03;;;;;;;10.67;2.80;;;4.40;99.90;;;;;;5062068;28;20726;-42
2022/02/18 04:29:31;;;;;;;11.77;2.70;;;4.40;99.90;;;;;;5062507;28;20222;-42
2022/02/18 04:31:58;;;;;;;10.43;2.10;;;4.40;99.90;;;;;;5063187;28;20206;-41
2022/02/18 04:34:25;;;;;;;9.40;2.23;;;4.40;99.90;;;;;;5061994;28;20202;-43
2022/02/18 04:36:52;;;;;;;9.37;2.50;;;4.40;99.90;;;;;;5064051;28;20202;-41
2022/02/18 04:39:19;;;;;;;9.90;2.30;;;4.40;99.90;;;;;;5045468;28;21299;-44
2022/02/18 04:41:47;;;;;;;12.07;2.17;;;4.40;99.90;;;;;;5064222;28;20230;-41
2022/02/18 04:44:16;;;;;;;12.30;2.83;;;4.50;99.90;;;;;;5058960;28;20219;-41
2022/02/18 04:46:44;;;;;;;11.90;2.90;;;4.50;99.90;;;;;;5063713;28;20229;-40
2022/02/18 04:49:11;;;;;;;11.13;2.10;;;4.50;99.90;;;;;;5059884;28;20256;-42
2022/02/18 04:51:39;;;;;;;6.33;1.63;;;4.50;99.90;;;;;;5063816;28;20198;-40
2022/02/18 04:54:06;;;;;;;17.00;2.27;;;4.50;99.90;;;;;;5061255;28;20298;-41
2022/02/18 04:56:34;;;;;;;12.43;2.67;;;4.50;99.90;;;;;;5056052;28;20214;-41
2022/02/18 04:59:01;;;;;;;8.40;2.60;;;4.50;99.90;;;;;;5061745;28;20253;-41
2022/02/18 05:01:28;;;;;;;9.40;2.40;;;4.50;99.90;;;;;;5059594;28;20194;-41
2022/02/18 05:03:56;;;;;;;15.23;2.57;;;4.50;99.90;;;;;;5063151;28;20206;-42
2022/02/18 05:06:23;;;;;;;12.10;2.77;;;4.50;99.90;;;;;;5059962;28;20205;-40
2022/02/18 05:08:49;;;;;;;12.10;2.47;;;4.50;99.90;;;;;;5063603;28;20263;-41
2022/02/18 05:11:16;;;;;;;9.73;2.70;;;4.50;99.90;;;;;;5044459;28;20198;-41
2022/02/18 05:13:43;;;;;;;10.60;2.13;;;4.50;99.90;;;;;;5066161;28;20201;-41
2022/02/18 05:16:10;;;;;;;15.27;2.63;;;4.60;99.90;;;;;;5064559;28;20195;-41
2022/02/18 05:18:38;;;;;;;12.77;2.20;;;4.60;99.90;;;;;;5063490;28;20221;-40
2022/02/18 05:21:06;;;;;;;12.20;2.87;;;4.60;99.90;;;;;;5059414;28;20277;-42
2022/02/18 05:23:34;;;;;;;13.43;3.37;;;4.60;99.90;;;;;;5058542;28;20222;-40
2022/02/18 05:26:01;;;;;;;12.83;2.07;;;4.60;99.90;;;;;;5045473;28;20221;-46
2022/02/18 05:28:27;;;;;;;26.97;5.03;;;4.60;99.90;;;;;;5062930;28;20262;-40
2022/02/18 05:30:54;;;;;;;17.97;5.00;;;4.60;99.90;;;;;;5059341;28;20931;-42
2022/02/18 05:33:21;;;;;;;17.73;3.70;;;4.60;99.90;;;;;;5051917;28;20195;-40
2022/02/18 05:35:48;;;;;;;19.90;5.23;;;4.60;99.90;;;;;;5062584;28;20202;-42
2022/02/18 05:38:16;;;;;;;13.33;4.30;;;4.60;99.90;;;;;;5060959;28;20598;-40
2022/02/18 05:40:44;;;;;;;19.93;4.50;;;4.60;99.90;;;;;;5055183;28;20206;-42
2022/02/18 05:43:10;;;;;;;12.43;3.33;;;4.60;99.90;;;;;;5046028;28;20224;-41
2022/02/18 05:45:38;;;;;;;13.57;4.17;;;4.60;99.90;;;;;;5056438;28;20210;-41
2022/02/18 05:48:05;;;;;;;32.17;7.53;;;4.60;99.90;;;;;;5062729;28;20206;-42
2022/02/18 05:50:31;;;;;;;17.20;4.53;;;4.60;99.90;;;;;;5067465;28;20222;-42
2022/02/18 05:52:58;;;;;;;21.00;4.60;;;4.60;99.90;;;;;;5062417;28;20190;-42
2022/02/18 05:55:26;;;;;;;31.53;6.17;;;4.60;99.90;;;;;;5061559;28;20202;-43
2022/02/18 05:57:54;;;;;;;23.10;4.57;;;4.60;99.90;;;;;;5052059;28;20251;-42
2022/02/18 06:00:21;;;;;;;36.90;7.00;;;4.60;99.90;;;;;;5061046;28;20214;-41
2022/02/18 06:02:47;;;;;;;20.43;4.57;;;4.60;99.90;;;;;;5065522;28;20219;-40
2022/02/18 06:05:14;;;;;;;27.67;5.13;;;4.60;99.90;;;;;;5064497;28;20214;-41
2022/02/18 06:07:43;;;;;;;11.63;3.80;;;4.60;99.90;;;;;;5062657;28;20206;-43
2022/02/18 06:10:10;;;;;;;38.27;7.77;;;4.60;99.90;;;;;;5064454;28;20254;-41
2022/02/18 06:12:38;;;;;;;25.47;5.13;;;4.60;99.90;;;;;;5048551;28;20206;-40
2022/02/18 06:15:06;;;;;;;45.87;7.80;;;4.60;99.90;;;;;;5065899;28;20206;-40
2022/02/18 06:17:33;;;;;;;29.50;6.70;;;4.60;99.90;;;;;;5052618;28;20920;-42
2022/02/18 06:20:00;;;;;;;24.70;5.03;;;4.60;99.90;;;;;;5065037;28;20214;-43
2022/02/18 06:22:30;;;;;;;23.20;5.50;;;4.60;99.90;;;;;;5062600;28;20206;-42
2022/02/18 06:24:59;;;;;;;17.27;5.07;;;4.60;99.90;;;;;;5058077;28;20328;-41
2022/02/18 06:27:25;;;;;;;21.90;5.30;;;4.60;99.90;;;;;;5064900;28;20202;-40
2022/02/18 06:29:55;;;;;;;33.13;6.30;;;4.60;99.90;;;;;;5048900;28;20252;-41
2022/02/18 06:32:22;;;;;;;24.63;5.23;;;4.60;99.90;;;;;;5071434;28;20255;-40
2022/02/18 06:34:49;;;;;;;24.37;4.43;;;4.60;99.90;;;;;;5048506;28;20273;-42
2022/02/18 06:37:16;;;;;;;43.33;7.73;;;4.60;99.90;;;;;;5060632;28;20260;-43
2022/02/18 06:39:43;;;;;;;17.27;4.47;;;4.60;99.90;;;;;;5050317;28;20230;-41
2022/02/18 06:42:10;;;;;;;13.63;3.90;;;4.60;99.90;;;;;;5064943;28;20290;-41
2022/02/18 06:44:37;;;;;;;17.13;4.13;;;4.70;99.90;;;;;;5048111;28;20222;-41
2022/02/18 06:47:06;;;;;;;15.47;2.80;;;4.60;99.90;;;;;;5063073;28;20199;-40
2022/02/18 06:49:33;;;;;;;16.97;4.27;;;4.60;99.90;;;;;;5062756;28;20226;-40
2022/02/18 06:52:00;;;;;;;22.40;4.97;;;4.60;99.90;;;;;;5056441;28;20649;-41
2022/02/18 06:54:28;;;;;;;10.47;2.90;;;4.60;99.90;;;;;;5060755;28;20583;-40
2022/02/18 06:56:57;;;;;;;8.07;2.77;;;4.60;99.90;;;;;;5059435;28;20200;-42
2022/02/18 06:59:24;;;;;;;22.97;4.70;;;4.60;99.90;;;;;;5056303;28;20223;-45
2022/02/18 07:01:54;;;;;;;11.10;3.37;;;4.60;99.90;;;;;;5056893;28;20236;-45
2022/02/18 07:04:22;;;;;;;9.77;3.17;;;4.60;99.90;;;;;;5063202;28;20217;-41
2022/02/18 07:06:49;;;;;;;16.10;3.60;;;4.70;99.90;;;;;;5063050;28;20261;-43
2022/02/18 07:09:16;;;;;;;15.53;3.77;;;4.70;99.90;;;;;;5066350;28;20210;-42
2022/02/18 07:11:44;;;;;;;17.50;4.77;;;4.70;99.90;;;;;;5057249;28;20198;-43
2022/02/18 07:14:11;;;;;;;10.70;3.23;;;4.70;99.90;;;;;;5045573;28;20218;-40
2022/02/18 07:16:41;;;;;;;18.10;4.33;;;4.70;99.90;;;;;;5062235;28;20248;-42
2022/02/18 07:19:09;;;;;;;30.13;6.67;;;4.70;99.90;;;;;;5063985;28;20227;-41
2022/02/18 07:21:38;;;;;;;23.23;4.97;;;4.70;99.90;;;;;;5058251;28;20277;-41
2022/02/18 07:24:06;;;;;;;15.03;4.30;;;4.70;99.90;;;;;;5057999;28;20242;-40
2022/02/18 07:26:33;;;;;;;16.93;4.43;;;4.70;99.90;;;;;;5059770;28;20198;-42
2022/02/18 07:29:00;;;;;;;20.90;5.13;;;4.80;99.90;;;;;;5042412;28;20677;-41
2022/02/18 07:31:29;;;;;;;15.63;4.23;;;4.80;99.90;;;;;;5059304;28;20278;-41
2022/02/18 07:33:56;;;;;;;10.37;4.47;;;4.80;99.90;;;;;;5055282;28;20191;-41
2022/02/18 07:36:22;;;;;;;14.57;4.70;;;4.80;99.90;;;;;;5050834;28;20199;-40
2022/02/18 07:38:51;;;;;;;16.83;3.27;;;4.90;99.90;;;;;;5070291;28;20226;-40
2022/02/18 07:41:17;;;;;;;12.77;3.63;;;4.90;99.90;;;;;;5051960;28;20281;-39
2022/02/18 07:43:44;;;;;;;14.47;3.50;;;4.90;99.90;;;;;;5057411;28;20264;-41
2022/02/18 07:46:11;;;;;;;13.23;4.33;;;4.90;99.90;;;;;;5039425;28;21116;-39
2022/02/18 07:48:38;;;;;;;23.43;5.10;;;5.00;99.90;;;;;;5057130;28;21939;-40
2022/02/18 07:51:06;;;;;;;16.57;4.40;;;5.00;99.90;;;;;;5056215;28;20199;-41
2022/02/18 07:53:33;;;;;;;14.37;4.90;;;5.00;99.90;;;;;;5064434;28;20197;-40
2022/02/18 07:56:02;;;;;;;15.67;3.83;;;5.00;99.90;;;;;;5053481;28;20217;-39
2022/02/18 07:58:28;;;;;;;19.00;6.33;;;5.00;99.90;;;;;;5053784;28;20263;-44
2022/02/18 08:00:55;;;;;;;22.50;5.90;;;5.10;99.90;;;;;;5059833;28;20571;-40
2022/02/18 08:03:22;;;;;;;16.67;6.00;;;5.10;99.90;;;;;;5053989;28;20615;-40
2022/02/18 08:05:49;;;;;;;16.03;4.67;;;5.10;99.90;;;;;;5063072;28;20234;-40
2022/02/18 08:08:20;;;;;;;20.43;5.47;;;5.10;99.90;;;;;;5054961;28;20199;-42
2022/02/18 08:10:47;;;;;;;7.27;3.17;;;5.20;99.90;;;;;;5057468;28;20199;-39
2022/02/18 08:13:15;;;;;;;17.77;5.00;;;5.20;99.90;;;;;;5049968;28;20208;-40
2022/02/18 08:15:41;;;;;;;12.30;3.57;;;5.20;99.90;;;;;;5045864;28;20222;-40
2022/02/18 08:18:08;;;;;;;12.97;3.67;;;5.20;99.90;;;;;;5066187;28;20216;-40
2022/02/18 08:20:35;;;;;;;12.17;3.80;;;5.20;99.90;;;;;;5056898;28;20230;-40
2022/02/18 08:23:01;;;;;;;19.73;5.90;;;5.30;99.90;;;;;;5043763;28;20216;-40
2022/02/18 08:25:28;;;;;;;15.93;4.27;;;5.30;99.90;;;;;;5052366;28;20831;-40
2022/02/18 08:27:55;;;;;;;16.20;4.47;;;5.40;99.90;;;;;;5052776;28;20191;-40
2022/02/18 08:30:24;;;;;;;10.87;3.50;;;5.40;99.90;;;;;;5061451;28;20893;-39
2022/02/18 08:32:50;;;;;;;15.70;3.73;;;5.40;99.90;;;;;;5041615;28;20206;-39
2022/02/18 08:35:17;;;;;;;17.87;4.57;;;5.40;99.90;;;;;;5059168;28;20317;-40
2022/02/18 08:37:44;;;;;;;11.67;3.83;;;5.40;99.90;;;;;;5065700;28;20197;-39
2022/02/18 08:40:11;;;;;;;20.43;3.43;;;5.50;99.90;;;;;;5062593;28;20222;-39
2022/02/18 08:42:38;;;;;;;9.47;3.83;;;5.50;99.90;;;;;;5053597;28;20209;-38
2022/02/18 08:45:06;;;;;;;12.33;3.83;;;5.50;99.90;;;;;;5059426;28;20950;-42
2022/02/18 08:47:35;;;;;;;11.60;4.07;;;5.50;99.90;;;;;;5048192;28;20306;-39
2022/02/18 08:50:03;;;;;;;20.10;6.30;;;5.50;99.90;;;;;;5059208;28;20229;-39
2022/02/18 08:52:30;;;;;;;13.20;3.53;;;5.60;99.90;;;;;;5054649;28;20687;-42
2022/02/18 08:54:57;;;;;;;22.33;4.83;;;5.70;99.90;;;;;;5066569;28;20667;-39
2022/02/18 08:57:24;;;;;;;11.80;4.53;;;5.60;99.90;;;;;;5059735;28;20210;-41
2022/02/18 08:59:50;;;;;;;16.63;4.47;;;5.60;99.90;;;;;;5058681;28;20226;-40
2022/02/18 09:02:18;;;;;;;21.30;6.07;;;5.70;99.90;;;;;;5061195;28;20248;-39
2022/02/18 09:04:47;;;;;;;15.83;5.70;;;5.70;99.90;;;;;;5054497;28;20221;-39
2022/02/18 09:07:14;;;;;;;5.17;2.50;;;5.70;99.90;;;;;;5060964;28;20190;-41
2022/02/18 09:09:41;;;;;;;13.03;4.10;;;5.90;99.90;;;;;;5060439;28;20615;-42
2022/02/18 09:12:08;;;;;;;9.67;3.57;;;5.90;99.90;;;;;;5061629;28;20325;-40
2022/02/18 09:14:35;;;;;;;15.83;4.30;;;5.70;99.90;;;;;;5051933;28;20195;-39
2022/02/18 09:17:22;;;;;;;11.70;4.43;;;5.90;99.90;;;;;;5061062;28;20328;-40
2022/02/18 09:19:52;;;;;;;13.83;4.87;;;5.80;99.90;;;;;;5042237;28;20249;-43
2022/02/18 09:22:19;;;;;;;14.83;4.73;;;5.90;99.90;;;;;;5050354;28;20277;-40
2022/02/18 09:24:47;;;;;;;21.87;5.90;;;6.00;99.90;;;;;;5046938;28;20242;-39
2022/02/18 09:27:13;;;;;;;13.47;5.33;;;5.80;99.90;;;;;;5051541;28;20202;-41
2022/02/18 09:29:40;;;;;;;15.33;4.80;;;5.90;99.90;;;;;;5052659;28;20234;-42
2022/02/18 09:32:07;;;;;;;15.77;4.60;;;6.00;99.90;;;;;;5054147;28;20865;-42
2022/02/18 09:34:34;;;;;;;12.43;4.53;;;6.00;99.90;;;;;;5044494;28;20733;-40
2022/02/18 09:37:04;;;;;;;15.87;4.60;;;6.00;99.90;;;;;;5059729;28;20227;-42
2022/02/18 09:39:32;;;;;;;12.70;4.03;;;5.90;99.90;;;;;;5045219;28;20343;-43
2022/02/18 09:41:59;;;;;;;10.87;3.80;;;6.00;99.90;;;;;;5052470;28;20280;-41
2022/02/18 09:44:28;;;;;;;12.37;3.90;;;6.10;99.90;;;;;;5054489;28;20214;-46
2022/02/18 09:46:58;;;;;;;14.53;3.90;;;5.90;99.90;;;;;;5054077;28;20206;-42
2022/02/18 09:49:26;;;;;;;9.87;3.47;;;6.10;99.90;;;;;;5055160;28;20227;-43
2022/02/18 09:51:53;;;;;;;7.33;3.10;;;6.20;99.90;;;;;;5045677;28;20206;-41
2022/02/18 09:54:21;;;;;;;7.33;3.23;;;6.20;99.90;;;;;;5064343;28;20217;-41
2022/02/18 09:56:49;;;;;;;7.43;3.37;;;6.10;99.90;;;;;;5060046;28;20576;-40
2022/02/18 09:59:15;;;;;;;11.20;3.27;;;6.10;99.90;;;;;;5066380;28;20229;-40
2022/02/18 10:01:42;;;;;;;5.07;3.13;;;6.00;99.90;;;;;;5054074;28;20550;-41
2022/02/18 10:04:10;;;;;;;13.00;3.67;;;6.10;99.90;;;;;;5063178;28;20231;-40
2022/02/18 10:06:38;;;;;;;9.27;3.13;;;6.10;99.90;;;;;;5046428;28;20206;-44
2022/02/18 10:09:05;;;;;;;12.10;3.80;;;6.00;99.90;;;;;;5055864;28;20215;-41
2022/02/18 10:11:55;;;;;;;7.60;3.43;;;6.10;99.90;;;;;;5064460;28;20182;-40
2022/02/18 10:14:21;;;;;;;15.80;3.60;;;6.20;99.90;;;;;;5066408;28;20182;-41
2022/02/18 10:16:49;;;;;;;11.33;3.97;;;6.00;99.90;;;;;;5057177;28;20206;-40
2022/02/18 10:19:16;;;;;;;13.40;3.70;;;6.10;99.90;;;;;;5063112;28;20214;-42
2022/02/18 10:21:44;;;;;;;11.07;4.63;;;6.00;99.90;;;;;;5047679;28;20209;-45
2022/02/18 10:24:13;;;;;;;10.97;3.70;;;5.90;99.90;;;;;;5061806;28;20309;-44
2022/02/18 10:26:42;;;;;;;9.67;3.90;;;5.90;99.90;;;;;;5067172;28;20228;-41
2022/02/18 10:29:19;;;;;;;7.50;4.23;;;6.00;99.90;;;;;;5055132;28;20231;-40
2022/02/18 10:31:45;;;;;;;12.30;4.37;;;6.00;99.90;;;;;;5065150;28;20685;-41
2022/02/18 10:34:12;;;;;;;12.67;4.77;;;6.10;99.90;;;;;;5066194;28;20761;-44
2022/02/18 10:36:40;;;;;;;9.80;4.73;;;6.00;99.90;;;;;;5058404;28;20195;-42
2022/02/18 10:39:24;;;;;;;11.73;4.50;;;5.90;99.90;;;;;;5046455;28;20218;-41
2022/02/18 10:41:52;;;;;;;12.03;4.40;;;6.00;99.90;;;;;;5056354;28;20847;-42
2022/02/18 10:44:20;;;;;;;13.73;4.07;;;5.90;99.90;;;;;;5065835;28;20215;-40
2022/02/18 10:46:55;;;;;;;12.07;4.20;;;5.90;99.90;;;;;;5057757;28;20198;-43
2022/02/18 10:49:23;;;;;;;14.23;4.20;;;6.10;99.90;;;;;;5058151;28;20250;-42
2022/02/18 10:51:51;;;;;;;10.70;3.90;;;6.10;99.90;;;;;;5067493;28;20248;-41
2022/02/18 10:54:18;;;;;;;9.00;3.37;;;6.00;99.90;;;;;;5051045;28;20924;-41
2022/02/18 10:56:45;;;;;;;11.50;3.70;;;6.10;99.90;;;;;;5062590;28;20201;-41
2022/02/18 10:59:12;;;;;;;8.57;3.37;;;6.10;99.90;;;;;;5068799;28;20211;-43
2022/02/18 11:01:45;;;;;;;7.90;3.73;;;6.00;99.90;;;;;;5062140;28;20207;-42
2022/02/18 11:04:12;;;;;;;6.77;3.20;;;5.90;99.90;;;;;;5064401;28;20190;-43
2022/02/18 11:06:39;;;;;;;7.10;3.33;;;6.00;99.90;;;;;;5070945;28;20294;-45
2022/02/18 11:09:07;;;;;;;7.20;3.40;;;5.90;99.90;;;;;;5049493;28;20252;-42
2022/02/18 11:11:36;;;;;;;6.73;3.37;;;5.90;99.90;;;;;;5058582;28;20207;-42
2022/02/18 11:14:05;;;;;;;9.20;3.73;;;5.90;99.90;;;;;;5059691;28;20203;-40
2022/02/18 11:16:34;;;;;;;9.43;3.90;;;6.10;99.90;;;;;;5070619;28;20202;-40
2022/02/18 11:19:03;;;;;;;14.17;4.23;;;6.00;99.90;;;;;;5056250;28;20225;-40
2022/02/18 11:21:30;;;;;;;7.13;3.23;;;6.10;99.90;;;;;;5059622;28;20202;-41
2022/02/18 11:23:58;;;;;;;6.43;3.43;;;6.00;99.90;;;;;;5046002;28;20209;-43
2022/02/18 11:26:26;;;;;;;10.43;3.60;;;6.00;99.90;;;;;;5060067;28;20216;-41
2022/02/18 11:28:54;;;;;;;11.27;3.90;;;6.20;99.90;;;;;;5056484;28;20292;-42
2022/02/18 11:31:26;;;;;;;10.97;4.27;;;6.00;99.90;;;;;;5067055;28;20194;-42
2022/02/18 11:34:30;;;;;;;8.83;3.53;;;6.00;99.90;;;;;;5057558;28;20206;-42
2022/02/18 11:37:32;;;;;;;7.73;3.93;;;6.00;99.90;;;;;;5067651;28;20190;-41
2022/02/18 11:40:27;;;;;;;14.00;4.20;;;5.90;99.90;;;;;;5047222;28;20221;-40
2022/02/18 11:43:08;;;;;;;8.90;3.60;;;6.00;99.90;;;;;;5061731;28;20563;-43
2022/02/18 11:45:35;;;;;;;13.43;4.93;;;5.90;99.90;;;;;;5066256;28;20222;-46
2022/02/18 11:48:02;;;;;;;10.03;4.43;;;5.90;99.90;;;;;;5052582;28;20199;-44
2022/02/18 11:50:30;;;;;;;14.33;4.67;;;5.80;99.90;;;;;;5064657;28;20218;-44
2022/02/18 11:52:57;;;;;;;12.40;5.10;;;5.90;99.90;;;;;;5059445;28;20534;-48
2022/02/18 11:55:29;;;;;;;14.43;5.90;;;5.90;99.90;;;;;;5058063;28;20194;-44
2022/02/18 11:57:58;;;;;;;10.63;4.97;;;5.90;99.90;;;;;;5058639;28;20713;-44
2022/02/18 12:00:37;;;;;;;15.13;6.20;;;6.10;99.90;;;;;;5062160;28;20219;-46
2022/02/18 12:03:11;;;;;;;15.67;5.70;;;6.00;99.90;;;;;;5053213;28;20203;-46
2022/02/18 12:06:05;;;;;;;10.23;5.10;;;5.90;99.90;;;;;;5057379;28;20683;-47
2022/02/18 12:08:54;;;;;;;10.53;4.90;;;5.90;99.90;;;;;;5057762;28;20784;-40
2022/02/18 12:11:22;;;;;;;14.10;6.23;;;5.90;99.90;;;;;;5045311;28;20209;-41
2022/02/18 12:13:51;;;;;;;14.70;6.03;;;5.80;99.90;;;;;;5056413;28;20198;-42
2022/02/18 12:16:19;;;;;;;13.60;6.13;;;5.90;99.90;;;;;;5058152;28;20232;-40
2022/02/18 12:19:05;;;;;;;8.43;5.10;;;6.00;99.90;;;;;;5059326;28;20329;-42
2022/02/18 12:21:34;;;;;;;9.87;4.70;;;6.10;99.90;;;;;;5054778;28;20279;-44
2022/02/18 12:24:34;;;;;;;9.87;4.60;;;6.00;99.90;;;;;;5062743;28;20560;-41
2022/02/18 12:27:34;;;;;;;5.73;2.97;;;5.90;99.90;;;;;;5044034;28;20194;-41
2022/02/18 12:30:36;;;;;;;7.43;4.23;;;6.00;99.90;;;;;;5041808;28;20312;-42
2022/02/18 12:33:03;;;;;;;6.23;3.77;;;6.10;99.90;;;;;;5054043;28;20765;-39
2022/02/18 12:35:34;;;;;;;9.43;4.60;;;6.20;99.90;;;;;;5061100;28;20191;-42
2022/02/18 12:38:04;;;;;;;9.30;3.33;;;6.20;99.90;;;;;;5051890;28;20207;-40
2022/02/18 12:40:35;;;;;;;6.20;3.40;;;6.20;99.90;;;;;;5056698;28;20580;-42
2022/02/18 12:43:04;;;;;;;5.50;2.70;;;6.20;99.90;;;;;;5043430;28;20211;-41
2022/02/18 12:45:49;;;;;;;3.20;2.27;;;6.30;99.90;;;;;;5053316;28;20288;-42
2022/02/18 12:48:16;;;;;;;7.20;3.03;;;6.40;99.90;;;;;;5057857;28;20225;-45
2022/02/18 12:50:46;;;;;;;9.00;3.70;;;6.60;99.90;;;;;;5059176;28;20191;-41
2022/02/18 12:53:20;;;;;;;10.70;3.37;;;6.50;99.90;;;;;;5055544;28;20249;-43
2022/02/18 12:55:47;;;;;;;7.47;2.90;;;6.60;99.90;;;;;;5063967;28;20190;-41
2022/02/18 12:58:15;;;;;;;7.77;3.23;;;6.70;99.90;;;;;;5045228;28;20210;-44
2022/02/18 13:00:42;;;;;;;5.80;3.43;;;6.70;99.90;;;;;;5053423;28;20595;-41
2022/02/18 13:03:11;;;;;;;4.97;3.30;;;6.70;99.90;;;;;;5055873;28;20190;-43